Overview Statistics Trail Chart Weather Telemetry Raw packets
 

This is the latest recevied weather packets stored in our database for station/object HA9OZD-18. If no packets are shown the sender has not sent any weather packets the latest 10 day(s).

<< 1 2 3 4 5 6 >>
Time Temp. Humidity Pressure Rain* Wind** Luminosity Snow
1788543919 17.78° C 59% 1015.8 hPa - - - -
1788540319 17.78° C 57% 1015.9 hPa - - - -
1788536745 18.89° C 50% 1016.5 hPa - - - -
1788533118 21.11° C 42% 1016.8 hPa - - - -
1788529518 21.11° C 42% 1016.8 hPa - - - -
1788525918 26.67° C 32% 1016.9 hPa - - - -
1788522317 18.89° C 52% 1017.7 hPa - - - -
1788518717 17.22° C 58% 1017.9 hPa - - - -
1788515117 16.11° C 66% 1017.8 hPa - - - -
1788511517 15.56° C 66% 1018.3 hPa - - - -
1788507916 14.44° C 71% 1017.8 hPa - - - -
1788504316 14.44° C 71% 1017.6 hPa - - - -
1788500716 13.89° C 67% 1017.7 hPa - - - -
1788498016 13.89° C 67% 1017.3 hPa - - - -
1788497116 13.89° C 67% 1017.3 hPa - - - -
1788493515 13.33° C 68% 1017.6 hPa - - - -
1788489915 13.33° C 68% 1017.7 hPa - - - -
1788486566 13.33° C 66% 1017.7 hPa - - - -
1788486314 13.33° C 66% 1017.7 hPa - - - -
1788483731 13.33° C 64% 1017.8 hPa - - - -
1788482714 13.33° C 64% 1017.8 hPa - - - -
1788479765 13.33° C 62% 1017.7 hPa - - - -
1788479113 13.33° C 62% 1017.7 hPa - - - -
1788475513 13.33° C 63% 1017.9 hPa - - - -
1788471913 13.89° C 61% 1017.8 hPa - - - -

* Rain since midnight (hover to see other rain measurements)
** Current wind speed in m/s (hover to see current wind gust speed)